createdAt,value
2022-12-05T00:01:18.592Z,72.33
2022-12-05T00:03:47.298Z,72.37
2022-12-05T00:06:15.195Z,72.26
2022-12-05T00:08:42.051Z,71.50
2022-12-05T00:11:14.627Z,71.34
2022-12-05T00:13:42.823Z,71.08
2022-12-05T00:16:11.753Z,71.47
2022-12-05T00:18:39.361Z,71.47
2022-12-05T00:21:07.658Z,71.67
2022-12-05T00:23:34.748Z,71.83
2022-12-05T00:26:03.964Z,72.18
2022-12-05T00:28:35.133Z,72.78
2022-12-05T00:31:07.221Z,72.57
2022-12-05T00:33:34.681Z,72.25
2022-12-05T00:36:10.624Z,72.11
2022-12-05T00:38:37.898Z,72.25
2022-12-05T00:41:16.756Z,72.22
2022-12-05T00:43:45.018Z,71.74
2022-12-05T00:46:15.158Z,72.06
2022-12-05T00:48:43.017Z,72.37
2022-12-05T00:51:14.453Z,72.04
2022-12-05T00:53:42.501Z,71.92
2022-12-05T00:56:15.810Z,71.74
2022-12-05T00:58:43.360Z,71.84
2022-12-05T01:01:15.086Z,72.04
2022-12-05T01:03:43.928Z,71.95
2022-12-05T01:06:12.452Z,71.94
2022-12-05T01:08:39.462Z,72.00
2022-12-05T01:11:07.770Z,72.09
2022-12-05T01:13:35.679Z,71.85
2022-12-05T01:16:03.151Z,71.40
2022-12-05T01:18:30.460Z,71.37
2022-12-05T01:20:57.715Z,71.78
2022-12-05T01:23:25.403Z,71.61
2022-12-05T01:25:53.299Z,71.79
2022-12-05T01:28:20.416Z,72.11
2022-12-05T01:30:49.343Z,71.87
2022-12-05T01:33:17.216Z,72.22
2022-12-05T01:35:44.682Z,72.36
2022-12-05T01:38:13.100Z,72.90
2022-12-05T01:40:41.121Z,72.81
2022-12-05T01:43:17.570Z,72.43
2022-12-05T01:45:46.712Z,71.79
2022-12-05T01:48:32.684Z,71.91
2022-12-05T01:51:00.639Z,72.12
2022-12-05T01:53:28.895Z,72.19
2022-12-05T01:55:56.583Z,72.83
2022-12-05T01:58:29.026Z,72.61
2022-12-05T02:00:56.813Z,72.60
2022-12-05T02:03:24.324Z,72.91
2022-12-05T02:05:54.412Z,72.71
2022-12-05T02:08:21.818Z,72.44
2022-12-05T02:10:54.491Z,73.11
2022-12-05T02:13:36.409Z,72.98
2022-12-05T02:16:19.009Z,72.59
2022-12-05T02:18:58.167Z,72.74
2022-12-05T02:21:46.875Z,72.30
2022-12-05T02:24:32.704Z,72.12
2022-12-05T02:27:22.154Z,72.38
2022-12-05T02:30:12.456Z,72.53
2022-12-05T02:33:04.062Z,72.30
2022-12-05T02:35:39.587Z,72.55
2022-12-05T02:38:21.439Z,72.46
2022-12-05T02:41:05.599Z,72.60
2022-12-05T02:44:12.243Z,72.55
2022-12-05T02:46:41.763Z,73.14
2022-12-05T02:49:12.092Z,73.18
2022-12-05T02:51:44.446Z,72.99
2022-12-05T02:54:17.256Z,72.74
2022-12-05T02:56:46.888Z,72.31
2022-12-05T02:59:18.490Z,72.33
2022-12-05T03:01:49.913Z,72.03
2022-12-05T03:04:20.193Z,72.73
2022-12-05T03:06:59.162Z,73.24
2022-12-05T03:09:29.938Z,73.29
2022-12-05T03:12:12.900Z,73.50
2022-12-05T03:14:46.524Z,73.62
2022-12-05T03:17:20.157Z,73.33
2022-12-05T03:20:07.775Z,73.89
2022-12-05T03:22:40.762Z,73.76
2022-12-05T03:25:09.176Z,73.63
2022-12-05T03:28:02.091Z,73.35
2022-12-05T03:30:31.075Z,73.16
2022-12-05T03:33:20.483Z,73.05
2022-12-05T03:35:53.390Z,73.09
2022-12-05T03:38:34.939Z,73.23
2022-12-05T03:41:16.922Z,72.91
2022-12-05T03:44:16.141Z,73.62
2022-12-05T03:46:43.075Z,73.62
2022-12-05T03:49:34.342Z,73.33
2022-12-05T03:52:10.315Z,73.55
2022-12-05T03:54:47.100Z,73.51
2022-12-05T03:57:17.323Z,73.47
2022-12-05T03:59:54.928Z,73.68
2022-12-05T04:02:32.447Z,73.61
2022-12-05T04:05:08.353Z,73.40
2022-12-05T04:07:39.431Z,73.41
2022-12-05T04:10:14.712Z,73.57
2022-12-05T04:12:43.355Z,73.82
2022-12-05T04:15:22.621Z,74.09
2022-12-05T04:18:00.767Z,74.15
2022-12-05T04:20:59.541Z,73.82
2022-12-05T04:23:27.912Z,73.44
2022-12-05T04:26:14.936Z,74.14
2022-12-05T04:28:51.811Z,73.97
2022-12-05T04:31:32.464Z,73.57
2022-12-05T04:34:06.804Z,74.03
2022-12-05T04:36:33.708Z,74.12
2022-12-05T04:39:03.070Z,74.14
2022-12-05T04:41:38.509Z,73.93
2022-12-05T04:44:10.435Z,73.78
2022-12-05T04:46:41.597Z,74.08
2022-12-05T04:49:12.129Z,73.93
2022-12-05T04:51:41.412Z,73.85
2022-12-05T04:54:21.715Z,73.82
2022-12-05T04:56:56.752Z,73.06
2022-12-05T04:59:26.592Z,72.87
2022-12-05T05:02:04.839Z,73.19
2022-12-05T05:04:38.377Z,72.99
2022-12-05T05:07:09.697Z,72.14
2022-12-05T05:09:37.665Z,71.69
2022-12-05T05:12:04.934Z,71.70
2022-12-05T05:14:31.931Z,71.71
2022-12-05T05:16:58.925Z,71.91
2022-12-05T05:19:26.073Z,71.37
2022-12-05T05:21:53.495Z,71.90
2022-12-05T05:24:21.915Z,71.76
2022-12-05T05:26:53.948Z,71.82
2022-12-05T05:29:23.946Z,71.93
2022-12-05T05:31:51.069Z,71.51
2022-12-05T05:34:18.098Z,71.58
2022-12-05T05:36:45.078Z,71.30
2022-12-05T05:39:15.374Z,71.63
2022-12-05T05:41:43.096Z,71.55
2022-12-05T05:44:10.730Z,71.91
2022-12-05T05:46:38.713Z,71.64
2022-12-05T05:49:05.789Z,72.00
2022-12-05T05:51:32.814Z,71.73
2022-12-05T05:54:00.514Z,70.94
2022-12-05T05:56:28.807Z,70.80
2022-12-05T05:58:58.068Z,70.68
2022-12-05T06:01:25.054Z,70.59
2022-12-05T06:03:52.453Z,70.90
2022-12-05T06:06:20.883Z,70.41
2022-12-05T06:08:48.345Z,70.16
2022-12-05T06:11:25.707Z,70.16
2022-12-05T06:13:58.322Z,70.27
2022-12-05T06:16:25.403Z,70.64
2022-12-05T06:18:53.271Z,70.63
2022-12-05T06:21:21.354Z,71.15
2022-12-05T06:23:48.852Z,71.09
2022-12-05T06:26:20.005Z,71.56
2022-12-05T06:28:47.103Z,71.50
2022-12-05T06:31:23.868Z,71.10
2022-12-05T06:33:51.329Z,70.76
2022-12-05T06:36:20.638Z,70.71
2022-12-05T06:38:47.662Z,71.03
2022-12-05T06:41:17.928Z,70.82
2022-12-05T06:43:45.441Z,70.55
2022-12-05T06:46:14.262Z,71.02
2022-12-05T06:48:41.348Z,71.89
2022-12-05T06:51:13.919Z,72.02
2022-12-05T06:53:41.340Z,72.17
2022-12-05T06:56:14.237Z,72.24
2022-12-05T06:58:42.534Z,72.27
2022-12-05T07:01:39.341Z,72.50
2022-12-05T07:04:26.780Z,72.33
2022-12-05T07:06:55.385Z,71.98
2022-12-05T07:09:46.087Z,73.11
2022-12-05T07:12:15.508Z,73.06
2022-12-05T07:14:48.706Z,72.72
2022-12-05T07:17:20.719Z,72.46
2022-12-05T07:19:52.186Z,73.07
2022-12-05T07:22:21.346Z,73.25
2022-12-05T07:24:48.862Z,73.38
2022-12-05T07:27:17.057Z,73.03
2022-12-05T07:29:46.435Z,73.47
2022-12-05T07:32:13.467Z,73.67
2022-12-05T07:34:40.731Z,73.97
2022-12-05T07:37:08.298Z,74.35
2022-12-05T07:39:35.253Z,74.55
2022-12-05T07:42:02.345Z,74.83
2022-12-05T07:44:29.365Z,74.80
2022-12-05T07:46:56.369Z,75.16
2022-12-05T07:49:23.290Z,75.57
2022-12-05T07:51:50.318Z,75.97
2022-12-05T07:54:17.547Z,76.00
2022-12-05T07:56:47.726Z,76.04
2022-12-05T07:59:15.128Z,76.57
2022-12-05T08:01:42.184Z,77.18
2022-12-05T08:04:14.817Z,77.98
2022-12-05T08:06:42.424Z,78.34
2022-12-05T08:09:09.451Z,78.81
2022-12-05T08:11:36.599Z,79.19
2022-12-05T08:14:06.466Z,79.67
2022-12-05T08:16:33.831Z,79.57
2022-12-05T08:19:03.748Z,79.03
2022-12-05T08:21:31.413Z,78.89
2022-12-05T08:23:58.847Z,79.10
2022-12-05T08:26:30.996Z,79.49
2022-12-05T08:29:09.708Z,79.33
2022-12-05T08:31:41.360Z,79.64
2022-12-05T08:34:11.287Z,79.27
2022-12-05T08:36:38.444Z,79.02
2022-12-05T08:39:08.496Z,79.13
2022-12-05T08:41:35.591Z,78.42
2022-12-05T08:44:05.669Z,78.31
2022-12-05T08:46:35.169Z,77.91
2022-12-05T08:49:03.336Z,77.68
2022-12-05T08:51:30.470Z,77.35
2022-12-05T08:53:57.534Z,77.23
2022-12-05T08:56:27.083Z,76.96
2022-12-05T08:59:01.273Z,77.25
2022-12-05T09:01:32.832Z,76.17
2022-12-05T09:04:01.285Z,76.66
2022-12-05T09:06:29.906Z,77.32
2022-12-05T09:08:59.807Z,77.45
2022-12-05T09:11:30.648Z,76.39
2022-12-05T09:13:58.969Z,76.39
2022-12-05T09:16:35.172Z,78.33
2022-12-05T09:19:11.276Z,76.50
2022-12-05T09:21:38.460Z,75.88
2022-12-05T09:24:05.385Z,76.02
2022-12-05T09:26:32.270Z,74.21
2022-12-05T09:28:59.313Z,74.80
2022-12-05T09:31:30.765Z,73.55
2022-12-05T09:33:57.978Z,74.82
2022-12-05T09:36:30.815Z,73.49
2022-12-05T09:39:04.164Z,71.17
2022-12-05T09:42:04.976Z,72.00
2022-12-05T09:44:44.351Z,71.71
2022-12-05T09:47:46.654Z,70.66
2022-12-05T09:50:25.293Z,68.87
2022-12-05T09:53:04.310Z,68.54
2022-12-05T09:56:05.502Z,68.99
2022-12-05T09:58:52.589Z,69.55
2022-12-05T10:01:31.702Z,68.55
2022-12-05T10:04:46.510Z,68.38
2022-12-05T10:07:13.389Z,69.39
2022-12-05T10:10:20.931Z,71.45
2022-12-05T10:13:09.014Z,72.20
2022-12-05T10:15:45.531Z,72.77
2022-12-05T10:18:21.803Z,72.31
2022-12-05T10:20:57.121Z,66.85
2022-12-05T10:23:56.142Z,67.29
2022-12-05T10:26:18.259Z,67.82
2022-12-05T10:28:54.211Z,67.90
2022-12-05T10:31:26.876Z,68.92
2022-12-05T10:34:03.852Z,69.61
2022-12-05T10:36:34.858Z,68.94
2022-12-05T10:39:04.699Z,69.43
2022-12-05T10:41:34.504Z,69.68
2022-12-05T10:44:01.542Z,69.53
2022-12-05T10:46:29.740Z,70.36
2022-12-05T10:48:57.122Z,71.92
2022-12-05T10:51:32.488Z,73.36
2022-12-05T10:54:09.374Z,74.03
2022-12-05T10:56:48.404Z,73.84
2022-12-05T10:59:19.842Z,73.79
2022-12-05T11:01:51.811Z,72.81
2022-12-05T11:04:24.563Z,73.07
2022-12-05T11:06:58.974Z,73.42
2022-12-05T11:09:32.555Z,73.41
2022-12-05T11:12:16.994Z,73.11
2022-12-05T11:15:22.082Z,73.74
2022-12-05T11:17:50.348Z,73.30
2022-12-05T11:20:20.014Z,71.84
2022-12-05T11:22:59.473Z,72.43
2022-12-05T11:25:36.642Z,70.84
2022-12-05T11:28:30.838Z,71.36
2022-12-05T11:31:06.781Z,71.66
2022-12-05T11:33:36.714Z,71.63
2022-12-05T11:36:31.149Z,71.63
2022-12-05T11:38:58.601Z,71.88
2022-12-05T11:41:37.592Z,71.92
2022-12-05T11:44:33.707Z,69.50
2022-12-05T11:47:09.502Z,68.63
2022-12-05T11:50:04.725Z,72.01
2022-12-05T11:52:54.949Z,71.10
2022-12-05T11:55:26.286Z,72.26
2022-12-05T11:58:11.911Z,72.23
2022-12-05T12:00:53.843Z,72.51
2022-12-05T12:03:45.365Z,72.04
2022-12-05T12:06:27.577Z,72.34
2022-12-05T12:09:12.618Z,72.37
2022-12-05T12:12:11.896Z,71.71
2022-12-05T12:15:17.045Z,71.81
2022-12-05T12:17:56.641Z,71.70
2022-12-05T12:20:34.847Z,71.50
2022-12-05T12:23:14.058Z,69.76
2022-12-05T12:25:53.180Z,70.87
2022-12-05T12:28:42.237Z,71.20
2022-12-05T12:31:21.144Z,71.33
2022-12-05T12:34:10.011Z,71.26
2022-12-05T12:36:55.500Z,71.23
2022-12-05T12:39:31.323Z,71.27
2022-12-05T12:42:21.206Z,71.20
2022-12-05T12:45:12.848Z,71.60
2022-12-05T12:48:02.537Z,71.38
2022-12-05T12:50:37.720Z,71.05
2022-12-05T12:53:50.354Z,70.59
2022-12-05T12:56:30.690Z,70.59
2022-12-05T12:59:16.815Z,70.20
2022-12-05T13:01:48.572Z,70.20
2022-12-05T13:04:28.517Z,69.78
2022-12-05T13:07:06.978Z,70.06
2022-12-05T13:09:51.811Z,70.42
2022-12-05T13:12:26.110Z,69.84
2022-12-05T13:15:02.268Z,69.85
2022-12-05T13:17:32.089Z,69.57
2022-12-05T13:20:00.280Z,69.28
2022-12-05T13:22:28.891Z,69.29
2022-12-05T13:24:56.790Z,69.52
2022-12-05T13:27:29.487Z,69.57
2022-12-05T13:30:00.556Z,69.95
2022-12-05T13:32:37.085Z,69.92
2022-12-05T13:36:00.741Z,69.96
2022-12-05T13:38:52.387Z,70.19
2022-12-05T13:41:38.410Z,70.45
2022-12-05T13:44:12.606Z,70.45
2022-12-05T13:46:42.511Z,70.07
2022-12-05T13:49:29.136Z,70.09
2022-12-05T13:52:07.683Z,70.06
2022-12-05T13:54:42.614Z,69.52
2022-12-05T13:57:29.349Z,69.67
2022-12-05T14:00:07.990Z,69.75
2022-12-05T14:02:41.877Z,68.57
2022-12-05T14:05:14.554Z,68.84
2022-12-05T14:07:49.851Z,68.68
2022-12-05T14:10:37.183Z,68.72
2022-12-05T14:13:24.290Z,69.18
2022-12-05T14:15:52.757Z,69.36
2022-12-05T14:18:35.493Z,69.55
2022-12-05T14:21:12.422Z,69.65
2022-12-05T14:24:01.931Z,68.77
2022-12-05T14:26:53.445Z,68.31
2022-12-05T14:29:38.670Z,68.25
2022-12-05T14:32:24.120Z,67.61
2022-12-05T14:35:28.386Z,68.85
2022-12-05T14:38:06.943Z,69.10
2022-12-05T14:40:43.294Z,69.47
2022-12-05T14:43:29.260Z,69.79
2022-12-05T14:45:58.925Z,69.85
2022-12-05T14:48:48.435Z,69.70
2022-12-05T14:51:30.844Z,69.24
2022-12-05T14:54:13.066Z,69.02
2022-12-05T14:56:46.355Z,69.37
2022-12-05T14:59:16.317Z,69.61
2022-12-05T15:02:05.513Z,69.34
2022-12-05T15:04:55.445Z,69.45
2022-12-05T15:07:38.656Z,69.58
2022-12-05T15:10:28.092Z,69.68
2022-12-05T15:13:03.240Z,69.85
2022-12-05T15:15:42.660Z,69.84
2022-12-05T15:18:28.539Z,69.94
2022-12-05T15:20:59.669Z,69.75
2022-12-05T15:23:40.304Z,69.77
2022-12-05T15:29:20.961Z,70.33
2022-12-05T15:31:52.668Z,69.88
2022-12-05T15:34:45.069Z,70.02
2022-12-05T15:37:39.469Z,70.12
2022-12-05T15:40:06.400Z,70.20
2022-12-05T15:42:53.848Z,70.42
2022-12-05T15:45:23.585Z,70.32
2022-12-05T15:47:56.957Z,70.57
2022-12-05T15:50:30.906Z,70.87
2022-12-05T15:53:24.072Z,70.70
2022-12-05T15:56:14.708Z,70.54
2022-12-05T15:58:48.128Z,70.47
2022-12-05T16:01:23.563Z,70.49
2022-12-05T16:03:59.861Z,70.45
2022-12-05T16:06:48.788Z,70.52
2022-12-05T16:09:22.275Z,70.61
2022-12-05T16:11:53.473Z,70.69
2022-12-05T16:14:51.445Z,70.79
2022-12-05T16:17:15.897Z,70.47
2022-12-05T16:19:43.839Z,70.39
2022-12-05T16:22:13.548Z,70.48
2022-12-05T16:25:01.375Z,70.60
2022-12-05T16:27:39.478Z,70.78
2022-12-05T16:30:07.406Z,69.81
2022-12-05T16:32:35.556Z,70.11
2022-12-05T16:35:03.015Z,70.13
2022-12-05T16:37:30.626Z,69.55
2022-12-05T16:39:57.966Z,69.52
2022-12-05T16:42:26.914Z,69.83
2022-12-05T16:45:06.002Z,69.78
2022-12-05T16:47:42.136Z,69.55
2022-12-05T16:50:35.253Z,69.71
2022-12-05T16:53:08.190Z,69.81
2022-12-05T16:55:38.570Z,69.84
2022-12-05T16:58:06.367Z,70.21
2022-12-05T17:00:33.476Z,70.10
2022-12-05T17:03:25.642Z,70.70
2022-12-05T17:05:47.796Z,70.73
2022-12-05T17:08:14.978Z,70.57
2022-12-05T17:10:42.886Z,70.69
2022-12-05T17:13:14.575Z,70.44
2022-12-05T17:15:42.293Z,70.32
2022-12-05T17:18:17.481Z,70.83
2022-12-05T17:20:50.912Z,71.23
2022-12-05T17:23:18.353Z,71.69
2022-12-05T17:25:52.063Z,71.45
2022-12-05T17:28:19.624Z,71.43
2022-12-05T17:30:47.060Z,71.21
2022-12-05T17:33:17.094Z,71.30
2022-12-05T17:35:44.651Z,71.49
2022-12-05T17:38:12.093Z,71.18
2022-12-05T17:40:40.045Z,71.12
2022-12-05T17:43:07.368Z,71.51
2022-12-05T17:45:34.447Z,71.94
2022-12-05T17:48:01.410Z,71.89
2022-12-05T17:50:30.035Z,71.96
2022-12-05T17:55:48.919Z,71.97
2022-12-05T17:58:16.931Z,72.04
2022-12-05T18:03:39.847Z,71.83
2022-12-05T18:06:07.237Z,72.25
2022-12-05T18:08:34.427Z,72.23
2022-12-05T18:11:01.567Z,72.09
2022-12-05T18:13:28.588Z,71.95
2022-12-05T18:15:59.221Z,72.17
2022-12-05T18:18:29.573Z,72.01
2022-12-05T18:21:07.822Z,71.25
2022-12-05T18:23:36.253Z,71.21
2022-12-05T18:26:04.075Z,71.22
2022-12-05T18:28:31.028Z,70.22
2022-12-05T18:31:13.762Z,70.22
2022-12-05T18:33:41.438Z,70.57
2022-12-05T18:36:11.589Z,70.59
2022-12-05T18:38:39.251Z,70.64
2022-12-05T18:41:07.110Z,70.32
2022-12-05T18:43:34.524Z,70.39
2022-12-05T18:46:03.954Z,70.58
2022-12-05T18:48:39.245Z,71.13
2022-12-05T18:51:19.758Z,71.24
2022-12-05T18:53:57.565Z,71.34
2022-12-05T18:56:34.886Z,71.60
2022-12-05T18:59:13.122Z,71.55
2022-12-05T19:01:41.950Z,71.40
2022-12-05T19:04:14.491Z,71.91
2022-12-05T19:06:46.503Z,71.58
2022-12-05T19:09:15.659Z,71.49
2022-12-05T19:11:47.554Z,71.03
2022-12-05T19:14:19.412Z,71.04
2022-12-05T19:16:49.112Z,71.20
2022-12-05T19:19:17.627Z,70.80
2022-12-05T19:21:45.575Z,70.50
2022-12-05T19:24:14.677Z,70.33
2022-12-05T19:26:41.830Z,70.38
2022-12-05T19:29:12.054Z,70.83
2022-12-05T19:31:39.619Z,70.89
2022-12-05T19:34:08.441Z,70.75
2022-12-05T19:36:38.159Z,70.95
2022-12-05T19:39:16.007Z,70.79
2022-12-05T19:41:43.267Z,70.80
2022-12-05T19:44:10.435Z,71.04
2022-12-05T19:46:37.959Z,71.00
2022-12-05T19:49:09.532Z,71.21
2022-12-05T19:51:36.819Z,71.15
2022-12-05T19:54:05.662Z,71.09
2022-12-05T19:56:34.044Z,71.09
2022-12-05T19:59:01.441Z,70.93
2022-12-05T20:01:34.112Z,71.00
2022-12-05T20:04:06.825Z,71.07
2022-12-05T20:06:36.583Z,71.27
2022-12-05T20:09:04.406Z,71.27
2022-12-05T20:11:31.574Z,71.59
2022-12-05T20:14:00.319Z,71.11
2022-12-05T20:16:28.597Z,70.96
2022-12-05T20:19:00.547Z,70.70
2022-12-05T20:21:29.877Z,70.71
2022-12-05T20:23:58.245Z,70.90
2022-12-05T20:26:28.688Z,70.89
2022-12-05T20:28:58.857Z,70.77
2022-12-05T20:31:30.977Z,71.09
2022-12-05T20:33:58.151Z,70.95
2022-12-05T20:36:27.638Z,71.16
2022-12-05T20:39:00.216Z,71.18
2022-12-05T20:41:28.532Z,71.07
2022-12-05T20:44:06.439Z,70.77
2022-12-05T20:46:33.613Z,71.23
2022-12-05T20:49:01.090Z,71.23
2022-12-05T20:51:33.428Z,71.16
2022-12-05T20:54:03.966Z,71.40
2022-12-05T20:56:32.300Z,71.22
2022-12-05T20:59:01.945Z,71.42
2022-12-05T21:01:31.094Z,71.44
2022-12-05T21:03:58.200Z,71.04
2022-12-05T21:06:27.752Z,71.29
2022-12-05T21:08:55.626Z,71.53
2022-12-05T21:11:24.177Z,71.49
2022-12-05T21:13:51.613Z,71.44
2022-12-05T21:16:23.189Z,71.38
2022-12-05T21:18:51.967Z,71.52
2022-12-05T21:21:21.696Z,71.01
2022-12-05T21:23:58.169Z,71.26
2022-12-05T21:26:28.440Z,71.33
2022-12-05T21:28:56.437Z,70.74
2022-12-05T21:31:29.462Z,70.88
2022-12-05T21:33:58.825Z,71.01
2022-12-05T21:36:27.879Z,71.37
2022-12-05T21:38:56.570Z,71.34
2022-12-05T21:41:25.185Z,71.58
2022-12-05T21:43:55.419Z,71.34
2022-12-05T21:46:26.194Z,71.47
2022-12-05T21:48:54.218Z,71.48
2022-12-05T21:51:22.245Z,71.34
2022-12-05T21:53:49.375Z,71.50
2022-12-05T21:56:19.036Z,71.67
2022-12-05T21:58:46.967Z,71.43
2022-12-05T22:01:19.592Z,71.46
2022-12-05T22:03:47.146Z,71.23
2022-12-05T22:06:17.418Z,71.57
2022-12-05T22:08:44.664Z,71.63
2022-12-05T22:11:19.866Z,71.92
2022-12-05T22:13:49.074Z,71.93
2022-12-05T22:16:17.207Z,72.29
2022-12-05T22:18:44.644Z,72.43
2022-12-05T22:21:14.592Z,72.35
2022-12-05T22:23:41.848Z,72.31
2022-12-05T22:26:11.429Z,72.49
2022-12-05T22:28:38.677Z,72.12
2022-12-05T22:31:08.534Z,72.58
2022-12-05T22:33:36.879Z,72.06
2022-12-05T22:36:07.300Z,72.59
2022-12-05T22:38:36.733Z,73.07
2022-12-05T22:41:09.491Z,72.71
2022-12-05T22:43:37.943Z,72.46
2022-12-05T22:46:10.338Z,72.14
2022-12-05T22:48:38.046Z,72.15
2022-12-05T22:51:07.009Z,72.67
2022-12-05T22:53:34.451Z,72.58
2022-12-05T22:56:04.250Z,72.59
2022-12-05T22:58:31.921Z,72.29
2022-12-05T23:01:08.017Z,72.64
2022-12-05T23:03:35.064Z,72.73
2022-12-05T23:06:11.488Z,72.65
2022-12-05T23:08:40.950Z,72.44
2022-12-05T23:11:09.027Z,72.25
2022-12-05T23:13:36.765Z,72.57
2022-12-05T23:16:09.574Z,72.28
2022-12-05T23:18:49.627Z,72.58
2022-12-05T23:21:20.764Z,72.23
2022-12-05T23:23:49.309Z,72.31
2022-12-05T23:26:17.275Z,72.39
2022-12-05T23:28:45.025Z,72.46
2022-12-05T23:31:13.140Z,71.56
2022-12-05T23:33:40.915Z,71.80
2022-12-05T23:36:09.371Z,71.92
2022-12-05T23:38:41.340Z,72.06
2022-12-05T23:41:15.697Z,72.28
2022-12-05T23:43:43.559Z,72.36
2022-12-05T23:46:13.388Z,72.20
2022-12-05T23:48:40.452Z,72.33
2022-12-05T23:51:11.806Z,72.27
2022-12-05T23:53:41.559Z,72.41
2022-12-05T23:56:11.588Z,72.57
2022-12-05T23:58:38.580Z,72.62
